sensor_id;sensor_type;location;lat;lon;timestamp;pressure;altitude;pressure_sealevel;temperature;humidity
46408;BME280;32110;45.724;21.276;2024-01-30T00:00:31;102922.69;;;-3.49;nan
46408;BME280;32110;45.724;21.276;2024-01-30T00:02:57;102931.28;;;-3.50;nan
46408;BME280;32110;45.724;21.276;2024-01-30T00:05:22;102934.63;;;-3.48;nan
46408;BME280;32110;45.724;21.276;2024-01-30T00:07:47;102886.47;;;-3.84;nan
46408;BME280;32110;45.724;21.276;2024-01-30T00:10:13;102895.91;;;-3.83;nan
46408;BME280;32110;45.724;21.276;2024-01-30T00:12:38;102934.94;;;-3.54;nan
46408;BME280;32110;45.724;21.276;2024-01-30T00:15:04;102950.44;;;-3.56;nan
46408;BME280;32110;45.724;21.276;2024-01-30T00:17:30;102946.28;;;-3.58;nan
46408;BME280;32110;45.724;21.276;2024-01-30T00:19:56;102931.63;;;-3.77;nan
46408;BME280;32110;45.724;21.276;2024-01-30T00:22:21;102949.06;;;-3.63;nan
46408;BME280;32110;45.724;21.276;2024-01-30T00:24:47;102929.00;;;-3.75;nan
46408;BME280;32110;45.724;21.276;2024-01-30T00:27:12;102950.59;;;-3.59;nan
46408;BME280;32110;45.724;21.276;2024-01-30T00:29:37;102943.19;;;-3.67;nan
46408;BME280;32110;45.724;21.276;2024-01-30T00:32:03;102959.56;;;-3.68;nan
46408;BME280;32110;45.724;21.276;2024-01-30T00:34:29;102949.47;;;-3.72;nan
46408;BME280;32110;45.724;21.276;2024-01-30T00:36:54;102952.09;;;-3.74;nan
46408;BME280;32110;45.724;21.276;2024-01-30T00:39:19;102952.19;;;-3.75;nan
46408;BME280;32110;45.724;21.276;2024-01-30T00:41:45;102955.38;;;-3.70;nan
46408;BME280;32110;45.724;21.276;2024-01-30T00:44:11;102950.44;;;-3.75;nan
46408;BME280;32110;45.724;21.276;2024-01-30T00:46:36;102974.66;;;-3.60;nan
46408;BME280;32110;45.724;21.276;2024-01-30T00:49:02;102963.47;;;-3.59;nan
46408;BME280;32110;45.724;21.276;2024-01-30T00:51:27;102965.84;;;-3.54;nan
46408;BME280;32110;45.724;21.276;2024-01-30T00:53:55;102959.00;;;-3.55;nan
46408;BME280;32110;45.724;21.276;2024-01-30T00:56:20;102972.59;;;-3.52;nan
46408;BME280;32110;45.724;21.276;2024-01-30T00:58:46;102947.09;;;-3.58;nan
46408;BME280;32110;45.724;21.276;2024-01-30T01:01:11;102971.47;;;-3.46;nan
46408;BME280;32110;45.724;21.276;2024-01-30T01:03:37;102964.50;;;-3.44;nan
46408;BME280;32110;45.724;21.276;2024-01-30T01:06:03;102951.00;;;-3.49;nan
46408;BME280;32110;45.724;21.276;2024-01-30T01:08:28;102957.66;;;-3.45;nan
46408;BME280;32110;45.724;21.276;2024-01-30T01:10:54;102960.25;;;-3.45;nan
46408;BME280;32110;45.724;21.276;2024-01-30T01:13:19;102973.69;;;-3.38;nan
46408;BME280;32110;45.724;21.276;2024-01-30T01:15:45;102972.56;;;-3.33;nan
46408;BME280;32110;45.724;21.276;2024-01-30T01:18:10;102970.69;;;-3.29;nan
46408;BME280;32110;45.724;21.276;2024-01-30T01:20:36;102962.25;;;-3.33;nan
46408;BME280;32110;45.724;21.276;2024-01-30T01:23:01;102897.63;;;-3.65;nan
46408;BME280;32110;45.724;21.276;2024-01-30T01:25:26;102949.38;;;-3.33;nan
46408;BME280;32110;45.724;21.276;2024-01-30T01:27:52;102958.38;;;-3.23;nan
46408;BME280;32110;45.724;21.276;2024-01-30T01:30:18;102942.97;;;-3.24;nan
46408;BME280;32110;45.724;21.276;2024-01-30T01:32:50;102953.53;;;-3.11;nan
46408;BME280;32110;45.724;21.276;2024-01-30T01:35:23;102958.63;;;-3.10;nan
46408;BME280;32110;45.724;21.276;2024-01-30T01:37:52;102951.47;;;-3.22;nan
46408;BME280;32110;45.724;21.276;2024-01-30T01:40:23;102953.69;;;-3.14;nan
46408;BME280;32110;45.724;21.276;2024-01-30T01:42:50;102958.63;;;-3.10;nan
46408;BME280;32110;45.724;21.276;2024-01-30T01:45:17;102967.19;;;-3.09;nan
46408;BME280;32110;45.724;21.276;2024-01-30T01:47:43;102972.94;;;-3.04;nan
46408;BME280;32110;45.724;21.276;2024-01-30T01:50:12;102967.13;;;-3.08;nan
46408;BME280;32110;45.724;21.276;2024-01-30T01:52:39;102970.38;;;-3.04;nan
46408;BME280;32110;45.724;21.276;2024-01-30T01:55:06;102977.97;;;-3.01;nan
46408;BME280;32110;45.724;21.276;2024-01-30T01:57:31;102956.97;;;-3.11;nan
46408;BME280;32110;45.724;21.276;2024-01-30T01:59:57;102972.00;;;-3.02;nan
46408;BME280;32110;45.724;21.276;2024-01-30T02:02:24;102961.75;;;-3.03;nan
46408;BME280;32110;45.724;21.276;2024-01-30T02:04:51;102964.94;;;-2.98;nan
46408;BME280;32110;45.724;21.276;2024-01-30T02:07:17;102965.75;;;-2.97;nan
46408;BME280;32110;45.724;21.276;2024-01-30T02:09:42;102953.09;;;-3.02;nan
46408;BME280;32110;45.724;21.276;2024-01-30T02:12:08;102964.72;;;-2.93;nan
46408;BME280;32110;45.724;21.276;2024-01-30T02:14:44;102973.50;;;-2.97;nan
46408;BME280;32110;45.724;21.276;2024-01-30T02:17:10;102946.56;;;-3.09;nan
46408;BME280;32110;45.724;21.276;2024-01-30T02:19:35;102977.47;;;-2.90;nan
46408;BME280;32110;45.724;21.276;2024-01-30T02:22:01;102931.41;;;-3.15;nan
46408;BME280;32110;45.724;21.276;2024-01-30T02:24:26;102960.47;;;-2.94;nan
46408;BME280;32110;45.724;21.276;2024-01-30T02:26:51;102965.69;;;-2.96;nan
46408;BME280;32110;45.724;21.276;2024-01-30T02:29:17;102958.03;;;-2.97;nan
46408;BME280;32110;45.724;21.276;2024-01-30T02:31:42;102962.19;;;-2.95;nan
46408;BME280;32110;45.724;21.276;2024-01-30T02:34:08;102960.34;;;-2.91;nan
46408;BME280;32110;45.724;21.276;2024-01-30T02:36:33;102951.06;;;-2.95;nan
46408;BME280;32110;45.724;21.276;2024-01-30T02:38:58;102975.44;;;-2.84;nan
46408;BME280;32110;45.724;21.276;2024-01-30T02:41:24;102977.09;;;-2.83;nan
46408;BME280;32110;45.724;21.276;2024-01-30T02:43:49;102962.06;;;-2.92;nan
46408;BME280;32110;45.724;21.276;2024-01-30T02:46:15;102951.88;;;-2.95;nan
46408;BME280;32110;45.724;21.276;2024-01-30T02:48:40;102961.75;;;-2.86;nan
46408;BME280;32110;45.724;21.276;2024-01-30T02:51:06;102971.84;;;-2.81;nan
46408;BME280;32110;45.724;21.276;2024-01-30T02:53:31;102967.75;;;-2.85;nan
46408;BME280;32110;45.724;21.276;2024-01-30T02:55:56;102971.09;;;-2.83;nan
46408;BME280;32110;45.724;21.276;2024-01-30T02:58:22;102967.91;;;-2.88;nan
46408;BME280;32110;45.724;21.276;2024-01-30T03:00:47;102973.00;;;-2.87;nan
46408;BME280;32110;45.724;21.276;2024-01-30T03:03:13;102968.72;;;-2.88;nan
46408;BME280;32110;45.724;21.276;2024-01-30T03:05:38;102953.78;;;-2.98;nan
46408;BME280;32110;45.724;21.276;2024-01-30T03:08:04;102971.19;;;-2.85;nan
46408;BME280;32110;45.724;21.276;2024-01-30T03:10:30;102953.47;;;-2.92;nan
46408;BME280;32110;45.724;21.276;2024-01-30T03:12:55;102959.41;;;-2.90;nan
46408;BME280;32110;45.724;21.276;2024-01-30T03:15:21;102954.19;;;-2.89;nan
46408;BME280;32110;45.724;21.276;2024-01-30T03:17:46;102955.94;;;-2.89;nan
46408;BME280;32110;45.724;21.276;2024-01-30T03:20:11;102939.31;;;-3.01;nan
46408;BME280;32110;45.724;21.276;2024-01-30T03:22:37;102935.97;;;-3.03;nan
46408;BME280;32110;45.724;21.276;2024-01-30T03:25:03;102939.91;;;-2.96;nan
46408;BME280;32110;45.724;21.276;2024-01-30T03:27:28;102952.75;;;-2.94;nan
46408;BME280;32110;45.724;21.276;2024-01-30T03:29:54;102945.97;;;-2.97;nan
46408;BME280;32110;45.724;21.276;2024-01-30T03:32:19;102951.88;;;-2.95;nan
46408;BME280;32110;45.724;21.276;2024-01-30T03:34:45;102938.69;;;-3.06;nan
46408;BME280;32110;45.724;21.276;2024-01-30T03:37:10;102959.78;;;-2.98;nan
46408;BME280;32110;45.724;21.276;2024-01-30T03:39:35;102954.63;;;-2.98;nan
46408;BME280;32110;45.724;21.276;2024-01-30T03:42:02;102953.94;;;-3.02;nan
46408;BME280;32110;45.724;21.276;2024-01-30T03:44:27;102939.03;;;-3.14;nan
46408;BME280;32110;45.724;21.276;2024-01-30T03:46:53;102903.25;;;-3.37;nan
46408;BME280;32110;45.724;21.276;2024-01-30T03:49:18;102940.94;;;-3.17;nan
46408;BME280;32110;45.724;21.276;2024-01-30T03:51:43;102921.94;;;-3.34;nan
46408;BME280;32110;45.724;21.276;2024-01-30T03:54:09;102953.81;;;-3.17;nan
46408;BME280;32110;45.724;21.276;2024-01-30T03:56:35;102945.19;;;-3.16;nan
46408;BME280;32110;45.724;21.276;2024-01-30T03:59:00;102952.91;;;-3.16;nan
46408;BME280;32110;45.724;21.276;2024-01-30T04:01:27;102964.81;;;-3.14;nan
46408;BME280;32110;45.724;21.276;2024-01-30T04:03:53;102955.63;;;-3.19;nan
46408;BME280;32110;45.724;21.276;2024-01-30T04:06:19;102958.38;;;-3.23;nan
46408;BME280;32110;45.724;21.276;2024-01-30T04:08:44;102975.34;;;-3.18;nan
46408;BME280;32110;45.724;21.276;2024-01-30T04:11:10;102967.28;;;-3.30;nan
46408;BME280;32110;45.724;21.276;2024-01-30T04:13:35;102981.63;;;-3.24;nan
46408;BME280;32110;45.724;21.276;2024-01-30T04:16:01;102968.47;;;-3.37;nan
46408;BME280;32110;45.724;21.276;2024-01-30T04:18:28;102954.31;;;-3.47;nan
46408;BME280;32110;45.724;21.276;2024-01-30T04:20:53;102957.81;;;-3.48;nan
46408;BME280;32110;45.724;21.276;2024-01-30T04:23:19;102980.78;;;-3.44;nan
46408;BME280;32110;45.724;21.276;2024-01-30T04:25:44;102986.00;;;-3.45;nan
46408;BME280;32110;45.724;21.276;2024-01-30T04:28:10;102978.56;;;-3.51;nan
46408;BME280;32110;45.724;21.276;2024-01-30T04:30:37;102984.41;;;-3.48;nan
46408;BME280;32110;45.724;21.276;2024-01-30T04:33:03;102984.59;;;-3.52;nan
46408;BME280;32110;45.724;21.276;2024-01-30T04:35:28;102975.69;;;-3.64;nan
46408;BME280;32110;45.724;21.276;2024-01-30T04:37:54;102980.16;;;-3.68;nan
46408;BME280;32110;45.724;21.276;2024-01-30T04:40:20;102986.13;;;-3.67;nan
46408;BME280;32110;45.724;21.276;2024-01-30T04:42:46;102987.06;;;-3.68;nan
46408;BME280;32110;45.724;21.276;2024-01-30T04:45:11;102982.25;;;-3.76;nan
46408;BME280;32110;45.724;21.276;2024-01-30T04:47:37;102994.97;;;-3.73;nan
46408;BME280;32110;45.724;21.276;2024-01-30T04:50:04;102989.88;;;-3.74;nan
46408;BME280;32110;45.724;21.276;2024-01-30T04:52:30;102982.31;;;-3.77;nan
46408;BME280;32110;45.724;21.276;2024-01-30T04:54:56;102986.63;;;-3.78;nan
46408;BME280;32110;45.724;21.276;2024-01-30T04:57:21;103005.84;;;-3.66;nan
46408;BME280;32110;45.724;21.276;2024-01-30T04:59:46;103001.00;;;-3.74;nan
46408;BME280;32110;45.724;21.276;2024-01-30T05:02:12;102991.69;;;-3.76;nan
46408;BME280;32110;45.724;21.276;2024-01-30T05:04:37;102943.16;;;-4.04;nan
46408;BME280;32110;45.724;21.276;2024-01-30T05:07:03;103000.03;;;-3.71;nan
46408;BME280;32110;45.724;21.276;2024-01-30T05:09:28;102993.38;;;-3.75;nan
46408;BME280;32110;45.724;21.276;2024-01-30T05:11:54;102991.63;;;-3.75;nan
46408;BME280;32110;45.724;21.276;2024-01-30T05:14:19;102996.78;;;-3.75;nan
46408;BME280;32110;45.724;21.276;2024-01-30T05:16:45;102977.34;;;-3.82;nan
46408;BME280;32110;45.724;21.276;2024-01-30T05:19:13;102998.31;;;-3.71;nan
46408;BME280;32110;45.724;21.276;2024-01-30T05:21:39;102972.22;;;-3.82;nan
46408;BME280;32110;45.724;21.276;2024-01-30T05:24:05;102980.91;;;-3.85;nan
46408;BME280;32110;45.724;21.276;2024-01-30T05:26:30;102963.34;;;-3.95;nan
46408;BME280;32110;45.724;21.276;2024-01-30T05:28:56;103000.28;;;-3.76;nan
46408;BME280;32110;45.724;21.276;2024-01-30T05:31:22;102994.66;;;-3.86;nan
46408;BME280;32110;45.724;21.276;2024-01-30T05:33:47;102991.25;;;-3.86;nan
46408;BME280;32110;45.724;21.276;2024-01-30T05:36:13;103012.63;;;-3.84;nan
46408;BME280;32110;45.724;21.276;2024-01-30T05:38:39;102991.19;;;-3.85;nan
46408;BME280;32110;45.724;21.276;2024-01-30T05:41:04;102997.19;;;-3.84;nan
46408;BME280;32110;45.724;21.276;2024-01-30T05:43:30;102983.09;;;-3.96;nan
46408;BME280;32110;45.724;21.276;2024-01-30T05:45:55;102986.50;;;-3.95;nan
46408;BME280;32110;45.724;21.276;2024-01-30T05:48:21;102995.50;;;-3.85;nan
46408;BME280;32110;45.724;21.276;2024-01-30T05:50:46;102998.88;;;-3.83;nan
46408;BME280;32110;45.724;21.276;2024-01-30T05:53:12;102992.03;;;-3.84;nan
46408;BME280;32110;45.724;21.276;2024-01-30T05:55:37;103008.00;;;-3.76;nan
46408;BME280;32110;45.724;21.276;2024-01-30T05:58:03;102997.03;;;-3.81;nan
46408;BME280;32110;45.724;21.276;2024-01-30T06:00:29;103012.16;;;-3.73;nan
46408;BME280;32110;45.724;21.276;2024-01-30T06:02:54;102991.25;;;-3.86;nan
46408;BME280;32110;45.724;21.276;2024-01-30T06:05:20;102997.94;;;-3.82;nan
46408;BME280;32110;45.724;21.276;2024-01-30T06:07:45;102997.22;;;-3.86;nan
46408;BME280;32110;45.724;21.276;2024-01-30T06:10:11;103004.00;;;-3.83;nan
46408;BME280;32110;45.724;21.276;2024-01-30T06:12:36;102989.78;;;-3.92;nan
46408;BME280;32110;45.724;21.276;2024-01-30T06:15:02;103005.91;;;-3.88;nan
46408;BME280;32110;45.724;21.276;2024-01-30T06:17:28;103003.44;;;-3.90;nan
46408;BME280;32110;45.724;21.276;2024-01-30T06:19:54;103007.63;;;-3.87;nan
46408;BME280;32110;45.724;21.276;2024-01-30T06:22:19;103010.97;;;-3.85;nan
46408;BME280;32110;45.724;21.276;2024-01-30T06:24:45;103020.19;;;-3.81;nan
46408;BME280;32110;45.724;21.276;2024-01-30T06:27:13;102994.09;;;-3.92;nan
46408;BME280;32110;45.724;21.276;2024-01-30T06:29:38;102965.66;;;-4.10;nan
46408;BME280;32110;45.724;21.276;2024-01-30T06:32:04;103011.50;;;-3.78;nan
46408;BME280;32110;45.724;21.276;2024-01-30T06:34:30;103018.06;;;-3.71;nan
46408;BME280;32110;45.724;21.276;2024-01-30T06:36:55;103015.94;;;-3.61;nan
46408;BME280;32110;45.724;21.276;2024-01-30T06:39:20;103016.28;;;-3.50;nan
46408;BME280;32110;45.724;21.276;2024-01-30T06:41:46;103016.28;;;-3.50;nan
46408;BME280;32110;45.724;21.276;2024-01-30T06:44:12;103020.75;;;-3.54;nan
46408;BME280;32110;45.724;21.276;2024-01-30T06:46:38;103023.38;;;-3.55;nan
46408;BME280;32110;45.724;21.276;2024-01-30T06:49:03;103015.72;;;-3.57;nan
46408;BME280;32110;45.724;21.276;2024-01-30T06:51:29;103023.38;;;-3.55;nan
46408;BME280;32110;45.724;21.276;2024-01-30T06:53:54;103031.94;;;-3.55;nan
46408;BME280;32110;45.724;21.276;2024-01-30T06:56:20;103023.25;;;-3.52;nan
46408;BME280;32110;45.724;21.276;2024-01-30T06:58:49;103024.72;;;-3.47;nan
46408;BME280;32110;45.724;21.276;2024-01-30T07:01:15;103028.06;;;-3.45;nan
46408;BME280;32110;45.724;21.276;2024-01-30T07:03:41;103014.53;;;-3.50;nan
46408;BME280;32110;45.724;21.276;2024-01-30T07:06:08;103008.41;;;-3.47;nan
46408;BME280;32110;45.724;21.276;2024-01-30T07:08:33;103029.13;;;-3.30;nan
46408;BME280;32110;45.724;21.276;2024-01-30T07:10:59;103013.78;;;-3.33;nan
46408;BME280;32110;45.724;21.276;2024-01-30T07:13:24;103009.50;;;-3.32;nan
46408;BME280;32110;45.724;21.276;2024-01-30T07:15:50;103015.13;;;-3.24;nan
46408;BME280;32110;45.724;21.276;2024-01-30T07:18:15;103031.75;;;-3.12;nan
46408;BME280;32110;45.724;21.276;2024-01-30T07:20:41;103014.00;;;-3.18;nan
46408;BME280;32110;45.724;21.276;2024-01-30T07:23:13;103035.56;;;-3.02;nan
46408;BME280;32110;45.724;21.276;2024-01-30T07:25:42;103032.09;;;-3.01;nan
46408;BME280;32110;45.724;21.276;2024-01-30T07:28:08;103035.31;;;-2.96;nan
46408;BME280;32110;45.724;21.276;2024-01-30T07:30:37;103037.47;;;-2.87;nan
46408;BME280;32110;45.724;21.276;2024-01-30T07:33:03;103038.84;;;-2.80;nan
46408;BME280;32110;45.724;21.276;2024-01-30T07:35:28;103096.91;;;-2.34;nan
46408;BME280;32110;45.724;21.276;2024-01-30T07:37:54;103019.09;;;-2.81;nan
46408;BME280;32110;45.724;21.276;2024-01-30T07:40:19;103029.81;;;-2.71;nan
46408;BME280;32110;45.724;21.276;2024-01-30T07:42:45;103042.66;;;-2.52;nan
46408;BME280;32110;45.724;21.276;2024-01-30T07:45:10;103042.28;;;-2.44;nan
46408;BME280;32110;45.724;21.276;2024-01-30T07:47:36;103045.41;;;-2.38;nan
46408;BME280;32110;45.724;21.276;2024-01-30T07:50:01;103040.78;;;-2.31;nan
46408;BME280;32110;45.724;21.276;2024-01-30T09:07:56;103044.47;;;0.05;nan
46408;BME280;32110;45.724;21.276;2024-01-30T09:10:22;103043.84;;;0.15;nan
46408;BME280;32110;45.724;21.276;2024-01-30T09:12:47;103031.97;;;0.11;nan
46408;BME280;32110;45.724;21.276;2024-01-30T09:15:13;103049.22;;;0.27;nan
46408;BME280;32110;45.724;21.276;2024-01-30T09:17:39;103053.56;;;0.40;nan
46408;BME280;32110;45.724;21.276;2024-01-30T09:20:05;103047.28;;;0.45;nan
46408;BME280;32110;45.724;21.276;2024-01-30T09:22:30;103051.91;;;0.54;nan
46408;BME280;32110;45.724;21.276;2024-01-30T09:24:57;103048.38;;;0.55;nan
46408;BME280;32110;45.724;21.276;2024-01-30T09:27:22;103032.00;;;0.54;nan
46408;BME280;32110;45.724;21.276;2024-01-30T09:29:48;103032.81;;;0.69;nan
46408;BME280;32110;45.724;21.276;2024-01-30T09:32:13;103044.19;;;0.81;nan
46408;BME280;32110;45.724;21.276;2024-01-30T09:34:39;103036.09;;;0.85;nan
46408;BME280;32110;45.724;21.276;2024-01-30T09:37:05;103042.38;;;0.96;nan
46408;BME280;32110;45.724;21.276;2024-01-30T09:39:30;103028.78;;;0.92;nan
46408;BME280;32110;45.724;21.276;2024-01-30T09:42:05;103044.31;;;1.06;nan
46408;BME280;32110;45.724;21.276;2024-01-30T09:44:31;103043.19;;;1.11;nan
46408;BME280;32110;45.724;21.276;2024-01-30T09:46:57;103040.09;;;1.18;nan
46408;BME280;32110;45.724;21.276;2024-01-30T09:49:31;102940.06;;;0.60;nan
46408;BME280;32110;45.724;21.276;2024-01-30T09:51:57;103024.56;;;1.31;nan
46408;BME280;32110;45.724;21.276;2024-01-30T09:54:23;103018.34;;;1.34;nan
46408;BME280;32110;45.724;21.276;2024-01-30T09:56:48;103031.09;;;1.51;nan
46408;BME280;32110;45.724;21.276;2024-01-30T09:59:14;103019.44;;;1.57;nan
46408;BME280;32110;45.724;21.276;2024-01-30T10:01:40;103032.97;;;1.75;nan
46408;BME280;32110;45.724;21.276;2024-01-30T10:04:07;103021.75;;;1.74;nan
46408;BME280;32110;45.724;21.276;2024-01-30T10:06:32;103007.34;;;1.70;nan
46408;BME280;32110;45.724;21.276;2024-01-30T10:08:57;103010.22;;;1.91;nan
46408;BME280;32110;45.724;21.276;2024-01-30T10:11:23;103008.06;;;1.98;nan
46408;BME280;32110;45.724;21.276;2024-01-30T10:13:49;103020.66;;;2.04;nan
46408;BME280;32110;45.724;21.276;2024-01-30T10:16:14;103008.47;;;2.04;nan
46408;BME280;32110;45.724;21.276;2024-01-30T10:18:42;103010.66;;;2.10;nan
46408;BME280;32110;45.724;21.276;2024-01-30T10:21:08;103010.75;;;2.22;nan
46408;BME280;32110;45.724;21.276;2024-01-30T10:23:34;103004.41;;;2.26;nan
46408;BME280;32110;45.724;21.276;2024-01-30T10:25:59;102999.91;;;2.41;nan
46408;BME280;32110;45.724;21.276;2024-01-30T10:28:27;102973.63;;;2.32;nan
46408;BME280;32110;45.724;21.276;2024-01-30T10:31:00;102991.56;;;2.48;nan
46408;BME280;32110;45.724;21.276;2024-01-30T10:33:26;102998.22;;;2.52;nan
46408;BME280;32110;45.724;21.276;2024-01-30T10:35:56;102980.56;;;2.45;nan
46408;BME280;32110;45.724;21.276;2024-01-30T10:38:28;102974.81;;;2.52;nan
46408;BME280;32110;45.724;21.276;2024-01-30T10:40:56;102987.69;;;2.67;nan
46408;BME280;32110;45.724;21.276;2024-01-30T10:43:22;102976.44;;;2.66;nan
46408;BME280;32110;45.724;21.276;2024-01-30T10:45:49;102979.22;;;2.76;nan
46408;BME280;32110;45.724;21.276;2024-01-30T10:48:19;102979.78;;;2.92;nan
46408;BME280;32110;45.724;21.276;2024-01-30T10:50:47;102970.97;;;3.06;nan
46408;BME280;32110;45.724;21.276;2024-01-30T10:53:14;102962.38;;;3.17;nan
46408;BME280;32110;45.724;21.276;2024-01-30T10:55:41;102958.75;;;3.31;nan
46408;BME280;32110;45.724;21.276;2024-01-30T10:58:07;102960.22;;;3.46;nan
46408;BME280;32110;45.724;21.276;2024-01-30T11:00:33;102957.63;;;3.57;nan
46408;BME280;32110;45.724;21.276;2024-01-30T11:02:59;102958.25;;;3.72;nan
46408;BME280;32110;45.724;21.276;2024-01-30T11:05:27;102952.44;;;3.80;nan
46408;BME280;32110;45.724;21.276;2024-01-30T11:07:53;102938.25;;;3.84;nan
46408;BME280;32110;45.724;21.276;2024-01-30T11:10:18;102944.66;;;4.02;nan
46408;BME280;32110;45.724;21.276;2024-01-30T11:12:46;102949.50;;;4.18;nan
46408;BME280;32110;45.724;21.276;2024-01-30T11:15:15;102943.81;;;4.24;nan
46408;BME280;32110;45.724;21.276;2024-01-30T11:20:22;102943.56;;;4.16;nan
46408;BME280;32110;45.724;21.276;2024-01-30T11:22:54;102931.38;;;4.17;nan
46408;BME280;32110;45.724;21.276;2024-01-30T11:25:22;102924.47;;;4.27;nan
46408;BME280;32110;45.724;21.276;2024-01-30T11:27:50;102940.78;;;4.52;nan
46408;BME280;32110;45.724;21.276;2024-01-30T11:30:29;102927.13;;;4.59;nan
46408;BME280;32110;45.724;21.276;2024-01-30T11:33:12;102931.94;;;4.75;nan
46408;BME280;32110;45.724;21.276;2024-01-30T11:35:42;102881.69;;;4.62;nan
46408;BME280;32110;45.724;21.276;2024-01-30T11:38:09;102921.56;;;4.96;nan
46408;BME280;32110;45.724;21.276;2024-01-30T11:40:37;102925.81;;;4.97;nan
46408;BME280;32110;45.724;21.276;2024-01-30T11:43:04;102917.03;;;4.98;nan
46408;BME280;32110;45.724;21.276;2024-01-30T11:45:30;102906.91;;;5.05;nan
46408;BME280;32110;45.724;21.276;2024-01-30T11:47:56;102903.78;;;5.11;nan
46408;BME280;32110;45.724;21.276;2024-01-30T11:50:23;102902.88;;;5.22;nan
46408;BME280;32110;45.724;21.276;2024-01-30T11:52:50;102885.94;;;5.16;nan
46408;BME280;32110;45.724;21.276;2024-01-30T11:55:15;102891.50;;;5.23;nan
46408;BME280;32110;45.724;21.276;2024-01-30T11:57:41;102898.03;;;5.38;nan
46408;BME280;32110;45.724;21.276;2024-01-30T12:00:17;102903.59;;;5.45;nan
46408;BME280;32110;45.724;21.276;2024-01-30T12:02:44;102897.97;;;5.49;nan
46408;BME280;32110;45.724;21.276;2024-01-30T12:05:14;102885.72;;;5.50;nan
46408;BME280;32110;45.724;21.276;2024-01-30T12:07:39;102865.88;;;5.38;nan
46408;BME280;32110;45.724;21.276;2024-01-30T12:10:05;102879.56;;;5.51;nan
46408;BME280;32110;45.724;21.276;2024-01-30T12:12:31;102887.44;;;5.61;nan
46408;BME280;32110;45.724;21.276;2024-01-30T12:14:56;102873.00;;;5.66;nan
46408;BME280;32110;45.724;21.276;2024-01-30T12:17:32;102856.50;;;5.66;nan
46408;BME280;32110;45.724;21.276;2024-01-30T12:42:29;102869.25;;;5.90;nan
46408;BME280;32110;45.724;21.276;2024-01-30T12:44:57;102852.53;;;5.71;nan
46408;BME280;32110;45.724;21.276;2024-01-30T12:47:22;102834.78;;;5.35;nan
46408;BME280;32110;45.724;21.276;2024-01-30T12:49:48;102856.31;;;5.58;nan
46408;BME280;32110;45.724;21.276;2024-01-30T12:52:16;102851.06;;;5.48;nan
46408;BME280;32110;45.724;21.276;2024-01-30T12:54:42;102838.09;;;5.37;nan
46408;BME280;32110;45.724;21.276;2024-01-30T12:57:08;102849.53;;;5.45;nan
46408;BME280;32110;45.724;21.276;2024-01-30T12:59:33;102836.69;;;5.32;nan
46408;BME280;32110;45.724;21.276;2024-01-30T13:02:00;102855.69;;;5.35;nan
46408;BME280;32110;45.724;21.276;2024-01-30T13:04:27;102840.00;;;5.35;nan
46408;BME280;32110;45.724;21.276;2024-01-30T13:06:52;102838.41;;;5.53;nan
46408;BME280;32110;45.724;21.276;2024-01-30T13:09:18;102848.16;;;5.82;nan
46408;BME280;32110;45.724;21.276;2024-01-30T13:11:43;102837.59;;;5.93;nan
46408;BME280;32110;45.724;21.276;2024-01-30T13:14:08;102831.47;;;6.04;nan
46408;BME280;32110;45.724;21.276;2024-01-30T13:16:34;102831.88;;;6.09;nan
46408;BME280;32110;45.724;21.276;2024-01-30T13:18:59;102841.38;;;6.20;nan
46408;BME280;32110;45.724;21.276;2024-01-30T13:21:27;102838.22;;;6.16;nan
46408;BME280;32110;45.724;21.276;2024-01-30T13:23:52;102824.03;;;6.09;nan
46408;BME280;32110;45.724;21.276;2024-01-30T13:26:22;102817.69;;;6.02;nan
46408;BME280;32110;45.724;21.276;2024-01-30T13:28:48;102826.09;;;6.15;nan
46408;BME280;32110;45.724;21.276;2024-01-30T13:31:14;102831.78;;;6.30;nan
46408;BME280;32110;45.724;21.276;2024-01-30T13:33:40;102827.38;;;6.30;nan
46408;BME280;32110;45.724;21.276;2024-01-30T13:36:07;102816.72;;;6.12;nan
46408;BME280;32110;45.724;21.276;2024-01-30T13:38:33;102832.31;;;6.14;nan
46408;BME280;32110;45.724;21.276;2024-01-30T13:40:59;102826.97;;;6.25;nan
46408;BME280;32110;45.724;21.276;2024-01-30T13:43:24;102816.63;;;6.24;nan
46408;BME280;32110;45.724;21.276;2024-01-30T13:45:50;102801.72;;;6.14;nan
46408;BME280;32110;45.724;21.276;2024-01-30T13:48:15;102817.44;;;6.34;nan
46408;BME280;32110;45.724;21.276;2024-01-30T13:50:41;102820.34;;;6.41;nan
46408;BME280;32110;45.724;21.276;2024-01-30T13:53:06;102813.72;;;6.36;nan
46408;BME280;32110;45.724;21.276;2024-01-30T13:55:32;102820.88;;;6.34;nan
46408;BME280;32110;45.724;21.276;2024-01-30T13:57:57;102796.09;;;6.19;nan
46408;BME280;32110;45.724;21.276;2024-01-30T14:00:23;102809.72;;;6.13;nan
46408;BME280;32110;45.724;21.276;2024-01-30T14:02:50;102803.66;;;6.03;nan
46408;BME280;32110;45.724;21.276;2024-01-30T14:05:16;102801.72;;;6.05;nan
46408;BME280;32110;45.724;21.276;2024-01-30T14:07:43;102797.88;;;5.99;nan
46408;BME280;32110;45.724;21.276;2024-01-30T14:10:09;102797.41;;;5.84;nan
46408;BME280;32110;45.724;21.276;2024-01-30T14:12:36;102812.16;;;5.95;nan
46408;BME280;32110;45.724;21.276;2024-01-30T14:15:02;102812.41;;;5.92;nan
46408;BME280;32110;45.724;21.276;2024-01-30T14:17:27;102797.13;;;5.87;nan
46408;BME280;32110;45.724;21.276;2024-01-30T14:19:53;102802.88;;;5.81;nan
46408;BME280;32110;45.724;21.276;2024-01-30T14:22:18;102804.94;;;5.78;nan
46408;BME280;32110;45.724;21.276;2024-01-30T14:24:43;102789.38;;;5.66;nan
46408;BME280;32110;45.724;21.276;2024-01-30T14:27:10;102795.72;;;5.73;nan
46408;BME280;32110;45.724;21.276;2024-01-30T14:29:35;102808.25;;;5.80;nan
46408;BME280;32110;45.724;21.276;2024-01-30T14:32:01;102787.88;;;5.73;nan
46408;BME280;32110;45.724;21.276;2024-01-30T14:34:27;102778.53;;;5.81;nan
46408;BME280;32110;45.724;21.276;2024-01-30T14:36:52;102743.53;;;5.62;nan
46408;BME280;32110;45.724;21.276;2024-01-30T14:39:18;102791.19;;;5.85;nan